Paradise Valley, Pennsylvania
Current Conditions -  °F | °C
As of 8:53 PM on Monday 24 Nov 2014 (Local Time) from KMPO Reporting Station
Clear Clear  
Wind Chill: 57°   Ceiling: Unl
Heat Index: 57°   Visibility: 10mi
Dew Point: 50°   Wind: 17mph
Humidity: 77%   Direction: 210°SSW
Pressure: 29.68"   Gusts: 25mph
Location:  41.1664°N, 75.2521°W
Report Text: KMPO 250153Z AUTO 21015G22KT 10SM CLR 14/10 A2968 RMK AO2 SLP048 T01390100
Loading
Personal Weather Stations






























Interactive Weather Map New forecast layout! Learn more

10-Day Weather Forecast

Advertisements
Track Severe Weather on mobile